sensor_id;sensor_type;location;lat;lon;timestamp;temperature;humidity
18446;DHT22;9352;50.888;4.466;2023-02-28T00:01:09;0.90;99.90
18446;DHT22;9352;50.888;4.466;2023-02-28T00:03:35;0.90;99.90
18446;DHT22;9352;50.888;4.466;2023-02-28T00:06:03;0.90;99.90
18446;DHT22;9352;50.888;4.466;2023-02-28T00:08:30;0.90;99.90
18446;DHT22;9352;50.888;4.466;2023-02-28T00:11:02;0.90;99.90
18446;DHT22;9352;50.888;4.466;2023-02-28T00:13:29;0.90;99.90
18446;DHT22;9352;50.888;4.466;2023-02-28T00:16:00;0.80;99.90
18446;DHT22;9352;50.888;4.466;2023-02-28T00:18:27;0.80;99.90
18446;DHT22;9352;50.888;4.466;2023-02-28T00:20:54;0.80;99.90
18446;DHT22;9352;50.888;4.466;2023-02-28T00:23:21;0.90;99.90
18446;DHT22;9352;50.888;4.466;2023-02-28T00:25:48;0.90;99.90
18446;DHT22;9352;50.888;4.466;2023-02-28T00:28:16;0.90;99.90
18446;DHT22;9352;50.888;4.466;2023-02-28T00:30:44;0.80;99.90
18446;DHT22;9352;50.888;4.466;2023-02-28T00:33:11;0.80;99.90
18446;DHT22;9352;50.888;4.466;2023-02-28T00:35:38;0.80;99.90
18446;DHT22;9352;50.888;4.466;2023-02-28T00:38:05;0.80;99.90
18446;DHT22;9352;50.888;4.466;2023-02-28T00:40:32;0.80;99.90
18446;DHT22;9352;50.888;4.466;2023-02-28T00:42:59;0.80;99.90
18446;DHT22;9352;50.888;4.466;2023-02-28T00:45:27;0.70;99.90
18446;DHT22;9352;50.888;4.466;2023-02-28T00:47:54;0.80;99.90
18446;DHT22;9352;50.888;4.466;2023-02-28T00:50:21;0.70;99.90
18446;DHT22;9352;50.888;4.466;2023-02-28T00:52:48;0.80;99.90
18446;DHT22;9352;50.888;4.466;2023-02-28T00:55:15;0.80;99.90
18446;DHT22;9352;50.888;4.466;2023-02-28T00:57:42;0.80;99.90
18446;DHT22;9352;50.888;4.466;2023-02-28T01:00:10;0.80;99.90
18446;DHT22;9352;50.888;4.466;2023-02-28T01:02:38;0.80;99.90
18446;DHT22;9352;50.888;4.466;2023-02-28T01:05:06;0.80;99.90
18446;DHT22;9352;50.888;4.466;2023-02-28T01:07:33;0.80;99.90
18446;DHT22;9352;50.888;4.466;2023-02-28T01:09:59;0.80;99.90
18446;DHT22;9352;50.888;4.466;2023-02-28T01:12:26;0.80;99.90
18446;DHT22;9352;50.888;4.466;2023-02-28T01:14:53;0.70;99.90
18446;DHT22;9352;50.888;4.466;2023-02-28T01:17:20;0.70;99.90
18446;DHT22;9352;50.888;4.466;2023-02-28T01:19:49;0.70;99.90
18446;DHT22;9352;50.888;4.466;2023-02-28T01:22:15;0.70;99.90
18446;DHT22;9352;50.888;4.466;2023-02-28T01:24:42;0.70;99.90
18446;DHT22;9352;50.888;4.466;2023-02-28T01:27:09;0.70;99.90
18446;DHT22;9352;50.888;4.466;2023-02-28T01:29:36;0.70;99.90
18446;DHT22;9352;50.888;4.466;2023-02-28T01:32:03;0.60;99.90
18446;DHT22;9352;50.888;4.466;2023-02-28T01:34:30;0.60;99.90
18446;DHT22;9352;50.888;4.466;2023-02-28T01:36:58;0.60;99.90
18446;DHT22;9352;50.888;4.466;2023-02-28T01:39:25;0.60;99.90
18446;DHT22;9352;50.888;4.466;2023-02-28T01:41:52;0.50;99.90
18446;DHT22;9352;50.888;4.466;2023-02-28T01:44:58;0.50;99.90
18446;DHT22;9352;50.888;4.466;2023-02-28T01:47:29;0.50;99.90
18446;DHT22;9352;50.888;4.466;2023-02-28T01:49:57;0.40;99.90
18446;DHT22;9352;50.888;4.466;2023-02-28T01:52:26;0.40;99.90
18446;DHT22;9352;50.888;4.466;2023-02-28T01:54:55;0.30;99.90
18446;DHT22;9352;50.888;4.466;2023-02-28T01:57:26;0.30;99.90
18446;DHT22;9352;50.888;4.466;2023-02-28T01:59:57;0.30;99.90
18446;DHT22;9352;50.888;4.466;2023-02-28T02:02:26;0.30;99.90
18446;DHT22;9352;50.888;4.466;2023-02-28T02:04:56;0.30;99.90
18446;DHT22;9352;50.888;4.466;2023-02-28T02:07:26;0.30;99.90
18446;DHT22;9352;50.888;4.466;2023-02-28T02:10:06;0.20;99.90
18446;DHT22;9352;50.888;4.466;2023-02-28T02:12:48;0.20;99.90
18446;DHT22;9352;50.888;4.466;2023-02-28T02:15:23;0.20;99.90
18446;DHT22;9352;50.888;4.466;2023-02-28T02:17:53;0.20;99.90
18446;DHT22;9352;50.888;4.466;2023-02-28T02:20:52;0.20;99.90
18446;DHT22;9352;50.888;4.466;2023-02-28T02:26:40;0.20;99.90
18446;DHT22;9352;50.888;4.466;2023-02-28T02:29:40;0.20;99.90
18446;DHT22;9352;50.888;4.466;2023-02-28T02:32:49;0.10;99.90
18446;DHT22;9352;50.888;4.466;2023-02-28T02:35:28;0.10;99.90
18446;DHT22;9352;50.888;4.466;2023-02-28T02:38:02;0.10;99.90
18446;DHT22;9352;50.888;4.466;2023-02-28T02:40:38;0.10;99.90
18446;DHT22;9352;50.888;4.466;2023-02-28T02:43:10;0.00;99.90
18446;DHT22;9352;50.888;4.466;2023-02-28T02:45:44;0.00;99.90
18446;DHT22;9352;50.888;4.466;2023-02-28T02:48:16;0.00;99.90
18446;DHT22;9352;50.888;4.466;2023-02-28T02:50:46;-0.10;99.90
18446;DHT22;9352;50.888;4.466;2023-02-28T02:53:18;-0.10;99.90
18446;DHT22;9352;50.888;4.466;2023-02-28T02:55:48;-0.10;99.90
18446;DHT22;9352;50.888;4.466;2023-02-28T02:58:23;-0.10;99.90
18446;DHT22;9352;50.888;4.466;2023-02-28T03:00:53;-0.10;99.90
18446;DHT22;9352;50.888;4.466;2023-02-28T03:03:21;-0.10;99.90
18446;DHT22;9352;50.888;4.466;2023-02-28T03:05:56;-0.10;99.90
18446;DHT22;9352;50.888;4.466;2023-02-28T03:08:24;-0.20;99.90
18446;DHT22;9352;50.888;4.466;2023-02-28T03:10:55;-0.20;99.90
18446;DHT22;9352;50.888;4.466;2023-02-28T03:14:03;-0.20;99.90
18446;DHT22;9352;50.888;4.466;2023-02-28T03:16:40;-0.20;99.90
18446;DHT22;9352;50.888;4.466;2023-02-28T03:19:36;-0.30;99.90
18446;DHT22;9352;50.888;4.466;2023-02-28T03:22:15;-0.30;99.90
18446;DHT22;9352;50.888;4.466;2023-02-28T03:24:49;-0.30;99.90
18446;DHT22;9352;50.888;4.466;2023-02-28T03:27:21;-0.30;99.90
18446;DHT22;9352;50.888;4.466;2023-02-28T03:29:54;-0.30;99.90
18446;DHT22;9352;50.888;4.466;2023-02-28T03:32:28;-0.30;99.90
18446;DHT22;9352;50.888;4.466;2023-02-28T03:35:00;-0.30;99.90
18446;DHT22;9352;50.888;4.466;2023-02-28T03:37:32;-0.40;99.90
18446;DHT22;9352;50.888;4.466;2023-02-28T03:40:05;-0.40;99.90
18446;DHT22;9352;50.888;4.466;2023-02-28T03:42:36;-0.40;99.90
18446;DHT22;9352;50.888;4.466;2023-02-28T03:45:05;-0.40;99.90
18446;DHT22;9352;50.888;4.466;2023-02-28T03:47:38;-0.40;99.90
18446;DHT22;9352;50.888;4.466;2023-02-28T03:50:09;-0.40;99.90
18446;DHT22;9352;50.888;4.466;2023-02-28T03:52:42;-0.40;99.90
18446;DHT22;9352;50.888;4.466;2023-02-28T03:55:13;-0.50;99.90
18446;DHT22;9352;50.888;4.466;2023-02-28T03:57:51;-0.50;99.90
18446;DHT22;9352;50.888;4.466;2023-02-28T04:00:27;-0.50;99.90
18446;DHT22;9352;50.888;4.466;2023-02-28T04:02:55;-0.40;99.90
18446;DHT22;9352;50.888;4.466;2023-02-28T04:05:22;-0.50;99.90
18446;DHT22;9352;50.888;4.466;2023-02-28T04:07:51;-0.50;99.90
18446;DHT22;9352;50.888;4.466;2023-02-28T04:10:18;-0.50;99.90
18446;DHT22;9352;50.888;4.466;2023-02-28T04:12:45;-0.50;99.90
18446;DHT22;9352;50.888;4.466;2023-02-28T04:15:12;-0.50;99.90
18446;DHT22;9352;50.888;4.466;2023-02-28T04:17:39;-0.50;99.90
18446;DHT22;9352;50.888;4.466;2023-02-28T04:20:07;-0.50;99.90
18446;DHT22;9352;50.888;4.466;2023-02-28T04:22:36;-0.50;99.90
18446;DHT22;9352;50.888;4.466;2023-02-28T04:25:06;-0.40;99.90
18446;DHT22;9352;50.888;4.466;2023-02-28T04:27:33;-0.40;99.90
18446;DHT22;9352;50.888;4.466;2023-02-28T04:30:00;-0.40;99.90
18446;DHT22;9352;50.888;4.466;2023-02-28T04:32:27;-0.40;99.90
18446;DHT22;9352;50.888;4.466;2023-02-28T04:34:54;-0.30;99.90
18446;DHT22;9352;50.888;4.466;2023-02-28T04:37:21;-0.30;99.90
18446;DHT22;9352;50.888;4.466;2023-02-28T04:39:53;-0.40;99.90
18446;DHT22;9352;50.888;4.466;2023-02-28T04:42:21;-0.40;99.90
18446;DHT22;9352;50.888;4.466;2023-02-28T04:44:48;-0.40;99.90
18446;DHT22;9352;50.888;4.466;2023-02-28T04:47:15;-0.40;99.90
18446;DHT22;9352;50.888;4.466;2023-02-28T04:49:42;-0.40;99.90
18446;DHT22;9352;50.888;4.466;2023-02-28T04:52:08;-0.30;99.90
18446;DHT22;9352;50.888;4.466;2023-02-28T04:54:36;-0.30;99.90
18446;DHT22;9352;50.888;4.466;2023-02-28T04:57:04;-0.20;99.90
18446;DHT22;9352;50.888;4.466;2023-02-28T04:59:32;-0.10;99.90
18446;DHT22;9352;50.888;4.466;2023-02-28T05:01:59;0.00;99.90
18446;DHT22;9352;50.888;4.466;2023-02-28T05:04:32;0.00;99.90
18446;DHT22;9352;50.888;4.466;2023-02-28T05:07:00;0.10;99.90
18446;DHT22;9352;50.888;4.466;2023-02-28T05:09:27;0.20;99.90
18446;DHT22;9352;50.888;4.466;2023-02-28T05:11:55;0.20;99.90
18446;DHT22;9352;50.888;4.466;2023-02-28T05:14:22;0.30;99.90
18446;DHT22;9352;50.888;4.466;2023-02-28T05:16:50;0.30;99.90
18446;DHT22;9352;50.888;4.466;2023-02-28T05:19:17;0.40;99.90
18446;DHT22;9352;50.888;4.466;2023-02-28T05:21:50;0.40;99.90
18446;DHT22;9352;50.888;4.466;2023-02-28T05:24:18;0.40;99.90
18446;DHT22;9352;50.888;4.466;2023-02-28T05:26:48;0.30;99.90
18446;DHT22;9352;50.888;4.466;2023-02-28T05:29:15;0.40;99.90
18446;DHT22;9352;50.888;4.466;2023-02-28T05:31:42;0.40;99.90
18446;DHT22;9352;50.888;4.466;2023-02-28T05:34:10;0.40;99.90
18446;DHT22;9352;50.888;4.466;2023-02-28T05:36:38;0.40;99.90
18446;DHT22;9352;50.888;4.466;2023-02-28T05:39:06;0.50;99.90
18446;DHT22;9352;50.888;4.466;2023-02-28T05:41:38;0.50;99.90
18446;DHT22;9352;50.888;4.466;2023-02-28T05:44:05;0.60;99.90
18446;DHT22;9352;50.888;4.466;2023-02-28T05:46:32;0.60;99.90
18446;DHT22;9352;50.888;4.466;2023-02-28T05:48:59;0.60;99.90
18446;DHT22;9352;50.888;4.466;2023-02-28T05:51:27;0.70;99.90
18446;DHT22;9352;50.888;4.466;2023-02-28T05:53:57;0.70;99.90
18446;DHT22;9352;50.888;4.466;2023-02-28T05:56:24;0.80;99.90
18446;DHT22;9352;50.888;4.466;2023-02-28T05:58:51;0.90;99.90
18446;DHT22;9352;50.888;4.466;2023-02-28T06:01:31;0.90;99.90
18446;DHT22;9352;50.888;4.466;2023-02-28T06:03:59;1.00;99.90
18446;DHT22;9352;50.888;4.466;2023-02-28T06:06:28;1.00;99.90
18446;DHT22;9352;50.888;4.466;2023-02-28T06:08:56;1.00;99.90
18446;DHT22;9352;50.888;4.466;2023-02-28T06:11:23;1.00;99.90
18446;DHT22;9352;50.888;4.466;2023-02-28T06:13:53;1.10;99.90
18446;DHT22;9352;50.888;4.466;2023-02-28T06:16:21;1.10;99.90
18446;DHT22;9352;50.888;4.466;2023-02-28T06:18:47;1.10;99.90
18446;DHT22;9352;50.888;4.466;2023-02-28T06:21:14;1.10;99.90
18446;DHT22;9352;50.888;4.466;2023-02-28T06:23:43;1.10;99.90
18446;DHT22;9352;50.888;4.466;2023-02-28T06:26:09;1.20;99.90
18446;DHT22;9352;50.888;4.466;2023-02-28T06:28:36;1.30;99.90
18446;DHT22;9352;50.888;4.466;2023-02-28T06:31:07;1.40;99.90
18446;DHT22;9352;50.888;4.466;2023-02-28T06:33:34;1.40;99.90
18446;DHT22;9352;50.888;4.466;2023-02-28T06:36:01;1.40;99.90
18446;DHT22;9352;50.888;4.466;2023-02-28T06:38:28;1.50;99.90
18446;DHT22;9352;50.888;4.466;2023-02-28T06:40:58;1.50;99.90
18446;DHT22;9352;50.888;4.466;2023-02-28T06:43:27;1.60;99.90
18446;DHT22;9352;50.888;4.466;2023-02-28T06:45:54;1.50;99.90
18446;DHT22;9352;50.888;4.466;2023-02-28T06:48:21;1.50;99.90
18446;DHT22;9352;50.888;4.466;2023-02-28T06:50:49;1.60;99.90
18446;DHT22;9352;50.888;4.466;2023-02-28T06:53:16;1.60;99.90
18446;DHT22;9352;50.888;4.466;2023-02-28T06:55:43;1.60;99.90
18446;DHT22;9352;50.888;4.466;2023-02-28T06:58:11;1.60;99.90
18446;DHT22;9352;50.888;4.466;2023-02-28T07:00:41;1.70;99.90
18446;DHT22;9352;50.888;4.466;2023-02-28T07:03:08;1.70;99.90
18446;DHT22;9352;50.888;4.466;2023-02-28T07:05:35;1.80;99.90
18446;DHT22;9352;50.888;4.466;2023-02-28T07:08:03;1.90;99.90
18446;DHT22;9352;50.888;4.466;2023-02-28T07:10:31;2.00;99.90
18446;DHT22;9352;50.888;4.466;2023-02-28T07:12:58;2.00;99.90
18446;DHT22;9352;50.888;4.466;2023-02-28T07:15:27;2.00;99.90
18446;DHT22;9352;50.888;4.466;2023-02-28T07:17:53;2.10;99.90
18446;DHT22;9352;50.888;4.466;2023-02-28T07:20:21;2.10;99.90
18446;DHT22;9352;50.888;4.466;2023-02-28T07:22:49;2.20;99.90
18446;DHT22;9352;50.888;4.466;2023-02-28T07:25:21;2.20;99.90
18446;DHT22;9352;50.888;4.466;2023-02-28T07:27:48;2.40;99.90
18446;DHT22;9352;50.888;4.466;2023-02-28T07:30:16;2.40;99.90
18446;DHT22;9352;50.888;4.466;2023-02-28T07:32:44;2.40;99.90
18446;DHT22;9352;50.888;4.466;2023-02-28T07:35:11;2.40;99.90
18446;DHT22;9352;50.888;4.466;2023-02-28T07:37:40;2.40;99.90
18446;DHT22;9352;50.888;4.466;2023-02-28T07:40:09;2.40;99.90
18446;DHT22;9352;50.888;4.466;2023-02-28T07:42:39;2.40;99.90
18446;DHT22;9352;50.888;4.466;2023-02-28T07:45:08;2.40;99.90
18446;DHT22;9352;50.888;4.466;2023-02-28T07:47:37;2.50;99.90
18446;DHT22;9352;50.888;4.466;2023-02-28T07:50:06;2.50;99.90
18446;DHT22;9352;50.888;4.466;2023-02-28T07:52:33;2.50;99.90
18446;DHT22;9352;50.888;4.466;2023-02-28T07:55:00;2.60;99.90
18446;DHT22;9352;50.888;4.466;2023-02-28T07:57:27;2.70;99.90
18446;DHT22;9352;50.888;4.466;2023-02-28T07:59:53;2.70;99.90
18446;DHT22;9352;50.888;4.466;2023-02-28T08:02:20;2.70;99.90
18446;DHT22;9352;50.888;4.466;2023-02-28T08:04:47;2.80;99.90
18446;DHT22;9352;50.888;4.466;2023-02-28T08:07:16;2.80;99.90
18446;DHT22;9352;50.888;4.466;2023-02-28T08:09:44;2.90;99.90
18446;DHT22;9352;50.888;4.466;2023-02-28T08:12:11;3.10;99.90
18446;DHT22;9352;50.888;4.466;2023-02-28T08:14:38;3.20;99.90
18446;DHT22;9352;50.888;4.466;2023-02-28T08:17:06;3.40;99.90
18446;DHT22;9352;50.888;4.466;2023-02-28T08:19:33;3.60;99.90
18446;DHT22;9352;50.888;4.466;2023-02-28T08:22:00;3.70;99.90
18446;DHT22;9352;50.888;4.466;2023-02-28T08:24:28;3.80;99.90
18446;DHT22;9352;50.888;4.466;2023-02-28T08:26:56;4.00;99.90
18446;DHT22;9352;50.888;4.466;2023-02-28T08:29:23;4.00;99.90
18446;DHT22;9352;50.888;4.466;2023-02-28T08:31:50;4.20;99.90
18446;DHT22;9352;50.888;4.466;2023-02-28T08:34:17;4.40;99.90
18446;DHT22;9352;50.888;4.466;2023-02-28T08:36:44;4.90;99.90
18446;DHT22;9352;50.888;4.466;2023-02-28T08:39:11;5.30;99.90
18446;DHT22;9352;50.888;4.466;2023-02-28T08:41:41;5.60;99.90
18446;DHT22;9352;50.888;4.466;2023-02-28T08:44:09;6.00;99.90
18446;DHT22;9352;50.888;4.466;2023-02-28T08:46:36;6.40;99.90
18446;DHT22;9352;50.888;4.466;2023-02-28T08:49:03;6.80;99.90
18446;DHT22;9352;50.888;4.466;2023-02-28T08:51:30;7.00;99.90
18446;DHT22;9352;50.888;4.466;2023-02-28T08:53:59;7.20;99.90
18446;DHT22;9352;50.888;4.466;2023-02-28T08:56:26;7.60;99.90
18446;DHT22;9352;50.888;4.466;2023-02-28T08:58:56;7.60;99.90
18446;DHT22;9352;50.888;4.466;2023-02-28T09:01:24;7.90;99.90
18446;DHT22;9352;50.888;4.466;2023-02-28T09:03:52;8.00;99.90
18446;DHT22;9352;50.888;4.466;2023-02-28T09:06:20;7.70;99.90
18446;DHT22;9352;50.888;4.466;2023-02-28T09:08:47;7.80;99.90
18446;DHT22;9352;50.888;4.466;2023-02-28T09:11:15;7.70;99.90
18446;DHT22;9352;50.888;4.466;2023-02-28T09:13:42;7.90;99.90
18446;DHT22;9352;50.888;4.466;2023-02-28T09:16:12;7.90;99.90
18446;DHT22;9352;50.888;4.466;2023-02-28T09:18:40;7.20;99.90
18446;DHT22;9352;50.888;4.466;2023-02-28T09:21:08;6.60;99.90
18446;DHT22;9352;50.888;4.466;2023-02-28T09:23:36;6.10;99.90
18446;DHT22;9352;50.888;4.466;2023-02-28T09:26:05;5.70;99.90
18446;DHT22;9352;50.888;4.466;2023-02-28T09:28:32;5.30;99.90
18446;DHT22;9352;50.888;4.466;2023-02-28T09:30:58;5.20;99.90
18446;DHT22;9352;50.888;4.466;2023-02-28T09:33:27;5.40;99.90
18446;DHT22;9352;50.888;4.466;2023-02-28T09:35:58;5.60;99.90
18446;DHT22;9352;50.888;4.466;2023-02-28T09:38:25;5.40;99.90
18446;DHT22;9352;50.888;4.466;2023-02-28T09:40:56;5.60;99.90
18446;DHT22;9352;50.888;4.466;2023-02-28T09:43:26;5.70;99.90
18446;DHT22;9352;50.888;4.466;2023-02-28T09:45:56;5.70;99.90
18446;DHT22;9352;50.888;4.466;2023-02-28T09:48:31;5.50;99.90
18446;DHT22;9352;50.888;4.466;2023-02-28T09:51:03;5.70;99.90
18446;DHT22;9352;50.888;4.466;2023-02-28T09:53:32;5.80;99.90
18446;DHT22;9352;50.888;4.466;2023-02-28T09:56:02;5.80;99.90
18446;DHT22;9352;50.888;4.466;2023-02-28T09:58:33;5.80;99.90
18446;DHT22;9352;50.888;4.466;2023-02-28T10:01:08;5.70;99.90
18446;DHT22;9352;50.888;4.466;2023-02-28T10:03:39;5.50;99.90
18446;DHT22;9352;50.888;4.466;2023-02-28T10:06:11;5.50;99.90
18446;DHT22;9352;50.888;4.466;2023-02-28T10:08:43;5.50;99.90
18446;DHT22;9352;50.888;4.466;2023-02-28T10:11:14;5.50;99.90
18446;DHT22;9352;50.888;4.466;2023-02-28T10:13:50;5.50;99.90
18446;DHT22;9352;50.888;4.466;2023-02-28T10:16:24;5.60;99.90
18446;DHT22;9352;50.888;4.466;2023-02-28T10:18:57;5.50;99.90
18446;DHT22;9352;50.888;4.466;2023-02-28T10:21:29;5.50;99.90
18446;DHT22;9352;50.888;4.466;2023-02-28T10:24:10;5.50;99.90
18446;DHT22;9352;50.888;4.466;2023-02-28T10:26:38;5.60;99.90
18446;DHT22;9352;50.888;4.466;2023-02-28T10:29:08;5.60;99.90
18446;DHT22;9352;50.888;4.466;2023-02-28T10:31:35;5.60;99.90
18446;DHT22;9352;50.888;4.466;2023-02-28T10:34:03;5.80;99.90
18446;DHT22;9352;50.888;4.466;2023-02-28T10:36:31;5.90;99.90
18446;DHT22;9352;50.888;4.466;2023-02-28T10:38:58;6.00;99.90
18446;DHT22;9352;50.888;4.466;2023-02-28T10:41:30;6.20;99.90
18446;DHT22;9352;50.888;4.466;2023-02-28T10:44:15;6.50;99.90
18446;DHT22;9352;50.888;4.466;2023-02-28T10:46:42;6.60;99.90
18446;DHT22;9352;50.888;4.466;2023-02-28T10:49:17;6.60;99.90
18446;DHT22;9352;50.888;4.466;2023-02-28T10:51:47;6.60;99.90
18446;DHT22;9352;50.888;4.466;2023-02-28T10:54:16;6.70;99.90
18446;DHT22;9352;50.888;4.466;2023-02-28T10:56:44;6.60;99.90
18446;DHT22;9352;50.888;4.466;2023-02-28T10:59:28;6.70;99.90
18446;DHT22;9352;50.888;4.466;2023-02-28T11:01:55;6.90;99.90
18446;DHT22;9352;50.888;4.466;2023-02-28T11:04:35;7.00;99.90
18446;DHT22;9352;50.888;4.466;2023-02-28T11:07:06;7.20;99.90
18446;DHT22;9352;50.888;4.466;2023-02-28T11:09:35;7.30;99.90
18446;DHT22;9352;50.888;4.466;2023-02-28T11:12:05;7.40;99.90
18446;DHT22;9352;50.888;4.466;2023-02-28T11:14:39;7.30;99.90
18446;DHT22;9352;50.888;4.466;2023-02-28T11:17:13;7.30;99.90
18446;DHT22;9352;50.888;4.466;2023-02-28T11:19:46;7.40;99.90
18446;DHT22;9352;50.888;4.466;2023-02-28T11:22:19;7.50;99.90
18446;DHT22;9352;50.888;4.466;2023-02-28T11:24:49;7.60;99.90
18446;DHT22;9352;50.888;4.466;2023-02-28T11:27:26;7.70;99.90
18446;DHT22;9352;50.888;4.466;2023-02-28T11:30:00;7.80;99.90
18446;DHT22;9352;50.888;4.466;2023-02-28T11:32:28;8.00;99.90
18446;DHT22;9352;50.888;4.466;2023-02-28T11:35:14;8.10;99.90
18446;DHT22;9352;50.888;4.466;2023-02-28T11:37:43;8.30;99.90
18446;DHT22;9352;50.888;4.466;2023-02-28T11:40:13;8.60;99.90
18446;DHT22;9352;50.888;4.466;2023-02-28T11:42:55;8.80;99.90
18446;DHT22;9352;50.888;4.466;2023-02-28T11:45:36;9.00;99.90
18446;DHT22;9352;50.888;4.466;2023-02-28T11:48:13;9.30;99.90
18446;DHT22;9352;50.888;4.466;2023-02-28T11:50:54;9.60;99.90
18446;DHT22;9352;50.888;4.466;2023-02-28T11:53:41;9.80;99.90
18446;DHT22;9352;50.888;4.466;2023-02-28T11:56:15;10.40;99.90
18446;DHT22;9352;50.888;4.466;2023-02-28T11:58:54;11.20;99.90
18446;DHT22;9352;50.888;4.466;2023-02-28T12:01:28;12.10;99.90
18446;DHT22;9352;50.888;4.466;2023-02-28T12:04:10;12.40;98.00
18446;DHT22;9352;50.888;4.466;2023-02-28T12:06:45;12.80;98.20
18446;DHT22;9352;50.888;4.466;2023-02-28T12:09:27;13.00;96.30
18446;DHT22;9352;50.888;4.466;2023-02-28T12:11:59;12.60;95.10
18446;DHT22;9352;50.888;4.466;2023-02-28T12:17:38;12.10;95.40
18446;DHT22;9352;50.888;4.466;2023-02-28T12:20:17;11.20;95.10
18446;DHT22;9352;50.888;4.466;2023-02-28T12:22:58;10.80;95.20
18446;DHT22;9352;50.888;4.466;2023-02-28T12:25:53;10.30;96.30
18446;DHT22;9352;50.888;4.466;2023-02-28T12:28:26;9.90;96.70
18446;DHT22;9352;50.888;4.466;2023-02-28T12:30:58;9.60;96.00
18446;DHT22;9352;50.888;4.466;2023-02-28T12:33:31;9.30;96.70
18446;DHT22;9352;50.888;4.466;2023-02-28T12:36:04;8.70;97.30
18446;DHT22;9352;50.888;4.466;2023-02-28T12:38:39;8.40;97.90
18446;DHT22;9352;50.888;4.466;2023-02-28T12:41:11;8.20;98.30
18446;DHT22;9352;50.888;4.466;2023-02-28T12:43:43;7.90;97.80
18446;DHT22;9352;50.888;4.466;2023-02-28T12:46:14;7.80;98.10
18446;DHT22;9352;50.888;4.466;2023-02-28T12:48:46;7.70;98.30
18446;DHT22;9352;50.888;4.466;2023-02-28T12:51:15;7.50;98.30
18446;DHT22;9352;50.888;4.466;2023-02-28T12:53:54;7.40;98.60
18446;DHT22;9352;50.888;4.466;2023-02-28T12:56:30;7.40;99.30
18446;DHT22;9352;50.888;4.466;2023-02-28T12:59:02;7.30;98.40
18446;DHT22;9352;50.888;4.466;2023-02-28T13:01:41;7.20;99.00
18446;DHT22;9352;50.888;4.466;2023-02-28T13:07:24;7.00;98.20
18446;DHT22;9352;50.888;4.466;2023-02-28T13:10:00;7.00;98.90
18446;DHT22;9352;50.888;4.466;2023-02-28T13:12:28;7.00;98.80
18446;DHT22;9352;50.888;4.466;2023-02-28T13:15:05;6.90;99.10
18446;DHT22;9352;50.888;4.466;2023-02-28T13:17:39;6.90;99.30
18446;DHT22;9352;50.888;4.466;2023-02-28T13:20:16;6.80;99.10
18446;DHT22;9352;50.888;4.466;2023-02-28T13:22:45;6.80;99.40
18446;DHT22;9352;50.888;4.466;2023-02-28T13:34:38;6.70;98.80
18446;DHT22;9352;50.888;4.466;2023-02-28T13:37:34;6.70;99.50
18446;DHT22;9352;50.888;4.466;2023-02-28T13:40:27;6.80;99.40
18446;DHT22;9352;50.888;4.466;2023-02-28T13:42:54;6.80;98.60
18446;DHT22;9352;50.888;4.466;2023-02-28T13:45:26;6.80;98.60
18446;DHT22;9352;50.888;4.466;2023-02-28T13:47:59;6.70;99.10
18446;DHT22;9352;50.888;4.466;2023-02-28T13:50:33;6.80;99.00
18446;DHT22;9352;50.888;4.466;2023-02-28T13:56:18;6.70;99.50
18446;DHT22;9352;50.888;4.466;2023-02-28T13:58:54;6.80;99.90
18446;DHT22;9352;50.888;4.466;2023-02-28T14:01:34;6.80;99.30
18446;DHT22;9352;50.888;4.466;2023-02-28T14:07:09;6.70;99.80
18446;DHT22;9352;50.888;4.466;2023-02-28T14:09:49;6.80;99.90
18446;DHT22;9352;50.888;4.466;2023-02-28T14:15:41;6.70;99.60
18446;DHT22;9352;50.888;4.466;2023-02-28T14:18:29;6.70;99.90
18446;DHT22;9352;50.888;4.466;2023-02-28T14:21:13;6.60;99.80
18446;DHT22;9352;50.888;4.466;2023-02-28T14:24:10;6.60;99.50
18446;DHT22;9352;50.888;4.466;2023-02-28T14:27:03;6.60;99.90
18446;DHT22;9352;50.888;4.466;2023-02-28T14:29:59;6.60;99.90
18446;DHT22;9352;50.888;4.466;2023-02-28T14:32:35;6.50;99.60
18446;DHT22;9352;50.888;4.466;2023-02-28T14:35:16;6.50;99.80
18446;DHT22;9352;50.888;4.466;2023-02-28T14:37:45;6.50;99.80
18446;DHT22;9352;50.888;4.466;2023-02-28T14:40:17;6.50;99.90
18446;DHT22;9352;50.888;4.466;2023-02-28T14:42:48;6.50;99.80
18446;DHT22;9352;50.888;4.466;2023-02-28T14:45:21;6.50;99.80
18446;DHT22;9352;50.888;4.466;2023-02-28T14:47:49;6.50;99.90
18446;DHT22;9352;50.888;4.466;2023-02-28T14:50:18;6.60;99.90
18446;DHT22;9352;50.888;4.466;2023-02-28T14:52:46;6.60;99.90
18446;DHT22;9352;50.888;4.466;2023-02-28T14:55:16;6.60;99.90
18446;DHT22;9352;50.888;4.466;2023-02-28T14:57:51;6.60;99.90
18446;DHT22;9352;50.888;4.466;2023-02-28T15:00:23;6.60;99.90
18446;DHT22;9352;50.888;4.466;2023-02-28T15:02:50;6.60;99.90
18446;DHT22;9352;50.888;4.466;2023-02-28T15:05:28;6.60;99.90
18446;DHT22;9352;50.888;4.466;2023-02-28T15:08:10;6.50;99.90
18446;DHT22;9352;50.888;4.466;2023-02-28T15:10:40;6.50;99.90
18446;DHT22;9352;50.888;4.466;2023-02-28T15:13:12;6.50;99.90
18446;DHT22;9352;50.888;4.466;2023-02-28T15:15:46;6.50;99.90
18446;DHT22;9352;50.888;4.466;2023-02-28T15:18:21;6.50;99.90
18446;DHT22;9352;50.888;4.466;2023-02-28T15:20:51;6.50;99.90
18446;DHT22;9352;50.888;4.466;2023-02-28T15:23:19;6.40;99.90
18446;DHT22;9352;50.888;4.466;2023-02-28T15:25:50;6.40;99.90
18446;DHT22;9352;50.888;4.466;2023-02-28T15:28:19;6.40;99.90
18446;DHT22;9352;50.888;4.466;2023-02-28T15:30:56;6.40;99.90
18446;DHT22;9352;50.888;4.466;2023-02-28T15:33:25;6.40;99.90
18446;DHT22;9352;50.888;4.466;2023-02-28T15:36:05;6.40;99.90
18446;DHT22;9352;50.888;4.466;2023-02-28T15:38:35;6.40;99.90
18446;DHT22;9352;50.888;4.466;2023-02-28T15:41:04;6.70;99.90
18446;DHT22;9352;50.888;4.466;2023-02-28T15:43:35;6.80;99.90
18446;DHT22;9352;50.888;4.466;2023-02-28T15:46:04;6.70;99.90
18446;DHT22;9352;50.888;4.466;2023-02-28T15:48:34;6.60;99.90
18446;DHT22;9352;50.888;4.466;2023-02-28T15:51:06;6.60;99.90
18446;DHT22;9352;50.888;4.466;2023-02-28T15:53:36;6.60;99.90
18446;DHT22;9352;50.888;4.466;2023-02-28T15:56:12;6.50;99.90
18446;DHT22;9352;50.888;4.466;2023-02-28T15:58:45;6.50;99.90
18446;DHT22;9352;50.888;4.466;2023-02-28T16:01:23;6.40;99.90
18446;DHT22;9352;50.888;4.466;2023-02-28T16:03:54;6.30;99.90
18446;DHT22;9352;50.888;4.466;2023-02-28T16:06:37;6.20;99.90
18446;DHT22;9352;50.888;4.466;2023-02-28T16:09:06;6.20;99.90
18446;DHT22;9352;50.888;4.466;2023-02-28T16:11:38;6.20;99.90
18446;DHT22;9352;50.888;4.466;2023-02-28T16:14:08;6.10;99.90
18446;DHT22;9352;50.888;4.466;2023-02-28T16:16:42;6.10;99.90
18446;DHT22;9352;50.888;4.466;2023-02-28T16:19:09;6.00;99.90
18446;DHT22;9352;50.888;4.466;2023-02-28T16:21:36;6.00;99.90
18446;DHT22;9352;50.888;4.466;2023-02-28T16:24:03;6.00;99.90
18446;DHT22;9352;50.888;4.466;2023-02-28T16:26:30;5.90;99.90
18446;DHT22;9352;50.888;4.466;2023-02-28T16:29:01;5.90;99.90
18446;DHT22;9352;50.888;4.466;2023-02-28T16:31:28;5.80;99.90
18446;DHT22;9352;50.888;4.466;2023-02-28T16:33:55;5.70;99.90
18446;DHT22;9352;50.888;4.466;2023-02-28T16:36:23;5.80;99.90
18446;DHT22;9352;50.888;4.466;2023-02-28T16:38:50;5.70;99.90
18446;DHT22;9352;50.888;4.466;2023-02-28T16:41:19;5.70;99.90
18446;DHT22;9352;50.888;4.466;2023-02-28T16:43:48;5.70;99.90
18446;DHT22;9352;50.888;4.466;2023-02-28T16:46:17;5.60;99.90
18446;DHT22;9352;50.888;4.466;2023-02-28T16:48:44;5.60;99.90
18446;DHT22;9352;50.888;4.466;2023-02-28T16:51:12;5.50;99.90
18446;DHT22;9352;50.888;4.466;2023-02-28T16:53:40;5.40;99.90